Time;durP1;ratioP1;P1;durP2;ratioP2;P2;SDS_P1;SDS_P2;PMS_P1;PMS_P2;Temp;Humidity;BMP_temperature;BMP_pressure;BME280_temperature;BME280_humidity;BME280_pressure;Samples;Min_cycle;Max_cycle;Signal;HPM_P1;HPM_P2
2023/08/24 00:00:45;;;;;;;4.70;1.70;;;16.10;99.90;;;;;;5047744;28;20037;-79
2023/08/24 00:03:12;;;;;;;4.20;1.73;;;16.10;99.90;;;;;;5053112;28;20112;-81
2023/08/24 00:05:38;;;;;;;4.93;1.85;;;16.10;99.90;;;;;;5034179;28;20072;-81
2023/08/24 00:08:08;;;;;;;4.63;1.73;;;16.00;99.90;;;;;;5051664;28;20037;-83
2023/08/24 00:10:35;;;;;;;6.40;2.15;;;16.00;99.90;;;;;;5050327;28;20497;-81
2023/08/24 00:13:02;;;;;;;3.83;1.85;;;16.00;99.90;;;;;;5053746;28;20037;-81
2023/08/24 00:15:28;;;;;;;4.55;1.92;;;16.00;99.90;;;;;;5060842;28;20124;-81
2023/08/24 00:17:54;;;;;;;3.60;2.08;;;16.00;99.90;;;;;;5038139;28;20069;-81
2023/08/24 00:20:20;;;;;;;4.75;1.60;;;16.50;99.90;;;;;;5053482;28;20099;-82
2023/08/24 00:22:46;;;;;;;3.15;1.65;;;15.90;99.90;;;;;;5042532;28;20068;-80
2023/08/24 00:25:12;;;;;;;3.38;1.70;;;15.90;99.90;;;;;;5035323;28;20381;-83
2023/08/24 00:27:38;;;;;;;2.78;1.75;;;15.90;99.90;;;;;;5050943;28;20049;-82
2023/08/24 00:30:06;;;;;;;3.95;1.90;;;15.80;99.90;;;;;;5040833;28;20430;-83
2023/08/24 00:32:34;;;;;;;4.50;2.13;;;15.90;99.90;;;;;;5035022;28;20060;-83
2023/08/24 00:35:01;;;;;;;7.47;2.35;;;15.80;99.90;;;;;;5036316;28;20033;-83
2023/08/24 00:37:28;;;;;;;2.38;1.65;;;15.80;99.90;;;;;;5049218;28;20040;-83
2023/08/24 00:39:54;;;;;;;4.05;2.20;;;15.80;99.90;;;;;;5047357;28;20120;-81
2023/08/24 00:42:19;;;;;;;2.95;1.60;;;15.70;99.90;;;;;;5032130;28;20116;-82
2023/08/24 00:44:45;;;;;;;3.60;1.92;;;15.80;99.90;;;;;;5049469;28;20120;-82
2023/08/24 00:47:11;;;;;;;4.90;1.73;;;15.70;99.90;;;;;;5050464;28;20052;-81
2023/08/24 00:49:37;;;;;;;2.55;1.52;;;15.70;99.90;;;;;;5051183;28;20195;-81
2023/08/24 00:52:03;;;;;;;5.63;1.70;;;15.70;99.90;;;;;;5049404;28;20041;-81
2023/08/24 00:54:29;;;;;;;1.77;1.33;;;15.80;99.90;;;;;;5047276;28;20142;-82
2023/08/24 00:56:55;;;;;;;2.30;1.40;;;15.80;99.90;;;;;;5031415;28;20041;-82
2023/08/24 00:59:20;;;;;;;3.15;1.48;;;15.70;99.90;;;;;;5048859;28;20040;-81
2023/08/24 01:01:47;;;;;;;2.70;1.35;;;15.70;99.90;;;;;;5039444;28;20051;-82
2023/08/24 01:04:13;;;;;;;3.78;1.65;;;15.70;99.90;;;;;;5026920;28;20122;-83
2023/08/24 01:06:39;;;;;;;2.92;1.83;;;15.70;99.90;;;;;;5047720;28;20476;-81
2023/08/24 01:09:06;;;;;;;3.47;1.58;;;16.70;99.90;;;;;;5048914;28;20118;-82
2023/08/24 01:11:45;;;;;;;3.28;1.45;;;15.90;99.90;;;;;;5045479;28;20041;-82
2023/08/24 01:14:35;;;;;;;1.73;1.52;;;15.80;99.90;;;;;;5048717;28;20045;-81
2023/08/24 01:17:05;;;;;;;2.85;1.80;;;15.80;99.90;;;;;;5029832;28;20049;-83
2023/08/24 01:19:41;;;;;;;5.68;2.95;;;15.80;99.90;;;;;;5032609;28;20077;-81
2023/08/24 01:22:32;;;;;;;6.20;3.00;;;15.70;99.90;;;;;;5036402;28;20102;-82
2023/08/24 01:25:13;;;;;;;3.08;2.38;;;15.80;99.90;;;;;;5034166;28;20046;-82
2023/08/24 01:27:40;;;;;;;4.82;2.80;;;15.70;99.90;;;;;;5050207;28;20052;-83
2023/08/24 01:30:07;;;;;;;5.10;2.33;;;15.80;99.90;;;;;;5033107;28;20085;-82
2023/08/24 01:32:34;;;;;;;5.00;2.83;;;15.70;99.90;;;;;;5051035;28;20053;-81
2023/08/24 01:35:05;;;;;;;3.03;2.22;;;15.70;99.90;;;;;;5051218;28;20108;-83
2023/08/24 01:37:33;;;;;;;5.32;2.47;;;15.70;99.90;;;;;;5046694;28;20041;-81
2023/08/24 01:40:13;;;;;;;3.45;2.10;;;15.60;99.90;;;;;;5049338;28;20037;-82
2023/08/24 01:43:09;;;;;;;3.53;1.92;;;15.60;99.90;;;;;;5047255;28;20056;-80
2023/08/24 01:45:35;;;;;;;3.53;2.30;;;15.60;99.90;;;;;;5003360;28;20099;-82
2023/08/24 01:48:04;;;;;;;4.28;1.83;;;15.90;99.90;;;;;;5035772;28;20048;-80
2023/08/24 01:50:34;;;;;;;2.78;2.20;;;15.60;99.90;;;;;;5036148;28;20052;-81
2023/08/24 01:53:00;;;;;;;2.88;2.20;;;15.60;99.90;;;;;;5060554;28;20087;-81
2023/08/24 01:55:26;;;;;;;3.33;1.52;;;15.70;99.90;;;;;;5038125;28;20037;-83
2023/08/24 01:57:51;;;;;;;4.15;2.05;;;15.60;99.90;;;;;;5030898;28;20048;-82
2023/08/24 02:00:17;;;;;;;4.10;1.90;;;15.60;99.90;;;;;;5032399;28;20076;-82
2023/08/24 02:02:44;;;;;;;2.70;2.15;;;15.70;99.90;;;;;;5044645;28;20481;-82
2023/08/24 02:05:10;;;;;;;4.70;2.25;;;15.70;99.90;;;;;;5046394;28;20037;-81
2023/08/24 02:07:35;;;;;;;4.57;2.35;;;15.70;99.90;;;;;;5044942;28;20037;-80
2023/08/24 02:10:01;;;;;;;5.68;2.70;;;15.80;99.90;;;;;;5049269;28;20060;-83
2023/08/24 02:12:27;;;;;;;4.75;3.00;;;15.70;99.90;;;;;;5025936;28;20118;-82
2023/08/24 02:14:53;;;;;;;4.80;3.25;;;15.70;99.90;;;;;;5045813;28;20045;-81
2023/08/24 02:17:18;;;;;;;3.92;2.92;;;15.80;99.90;;;;;;5044073;28;20049;-84
2023/08/24 02:19:44;;;;;;;8.82;3.75;;;15.80;99.90;;;;;;5047384;28;20488;-83
2023/08/24 02:22:09;;;;;;;5.30;3.00;;;15.80;99.90;;;;;;5032383;28;20056;-82
2023/08/24 02:24:35;;;;;;;5.47;3.97;;;15.80;99.90;;;;;;5042698;28;20048;-83
2023/08/24 02:27:01;;;;;;;7.30;4.32;;;15.80;99.90;;;;;;5047479;28;20120;-82
2023/08/24 02:29:27;;;;;;;6.50;3.97;;;16.30;99.90;;;;;;5039782;28;20052;-83
2023/08/24 02:31:53;;;;;;;8.05;4.15;;;15.80;99.90;;;;;;5044653;28;20106;-82
2023/08/24 02:34:19;;;;;;;9.30;4.80;;;15.90;99.90;;;;;;5047168;28;20058;-81
2023/08/24 02:36:45;;;;;;;5.18;4.25;;;15.90;99.90;;;;;;5049575;28;20478;-80
2023/08/24 02:39:10;;;;;;;6.22;4.70;;;15.90;99.90;;;;;;5039405;28;20481;-81
2023/08/24 02:41:36;;;;;;;6.60;4.43;;;15.90;99.90;;;;;;5043073;28;20040;-82
2023/08/24 02:44:02;;;;;;;8.48;5.72;;;15.90;99.90;;;;;;5034876;28;20063;-82
2023/08/24 02:46:28;;;;;;;7.43;4.95;;;15.90;99.90;;;;;;5044011;28;20075;-81
2023/08/24 02:48:53;;;;;;;9.50;4.78;;;15.90;99.90;;;;;;5040966;28;20049;-83
2023/08/24 02:51:22;;;;;;;6.43;4.55;;;15.90;99.90;;;;;;5050610;28;20128;-82
2023/08/24 02:53:49;;;;;;;6.43;4.75;;;16.00;99.90;;;;;;5049661;28;20049;-82
2023/08/24 02:56:14;;;;;;;7.18;3.67;;;16.00;99.90;;;;;;5027444;28;20037;-82
2023/08/24 02:58:40;;;;;;;6.47;4.10;;;16.20;99.90;;;;;;5032601;28;20450;-82
2023/08/24 03:01:07;;;;;;;5.50;3.72;;;16.00;99.90;;;;;;5050048;28;20060;-82
2023/08/24 03:03:34;;;;;;;6.82;3.75;;;15.90;99.90;;;;;;5042286;28;20064;-81
2023/08/24 03:06:02;;;;;;;5.70;3.20;;;15.90;99.90;;;;;;5046911;28;20037;-84
2023/08/24 03:08:29;;;;;;;4.03;3.42;;;15.90;99.90;;;;;;5048387;28;20037;-83
2023/08/24 03:10:55;;;;;;;6.30;3.50;;;15.90;99.90;;;;;;5029228;28;20040;-83
2023/08/24 03:13:22;;;;;;;5.47;3.42;;;15.90;99.90;;;;;;5054013;28;20059;-83
2023/08/24 03:15:48;;;;;;;5.57;3.53;;;15.90;99.90;;;;;;5044828;28;20132;-83
2023/08/24 03:18:15;;;;;;;3.50;2.83;;;15.90;99.90;;;;;;5048469;28;20048;-81
2023/08/24 03:20:41;;;;;;;8.30;3.63;;;15.80;99.90;;;;;;5052229;28;20067;-82
2023/08/24 03:23:07;;;;;;;7.57;3.33;;;15.90;99.90;;;;;;5033892;28;20053;-81
2023/08/24 03:25:37;;;;;;;5.53;3.85;;;15.90;99.90;;;;;;5052450;28;20037;-83
2023/08/24 03:28:04;;;;;;;6.60;4.03;;;16.00;99.90;;;;;;5051386;28;20041;-80
2023/08/24 03:30:29;;;;;;;4.43;3.88;;;16.00;99.90;;;;;;5044513;28;20063;-82
2023/08/24 03:32:55;;;;;;;10.30;4.47;;;16.00;99.90;;;;;;5053432;28;20485;-81
2023/08/24 03:35:21;;;;;;;9.65;4.72;;;16.00;99.90;;;;;;5025872;28;20493;-82
2023/08/24 03:37:47;;;;;;;9.00;4.88;;;15.90;99.90;;;;;;5050135;28;20045;-80
2023/08/24 03:40:13;;;;;;;8.68;5.10;;;15.90;99.90;;;;;;5048727;28;20037;-81
2023/08/24 03:42:38;;;;;;;11.50;5.30;;;15.90;99.90;;;;;;5053219;28;20120;-83
2023/08/24 03:45:05;;;;;;;8.85;4.72;;;15.90;99.90;;;;;;5028813;28;20037;-81
2023/08/24 03:47:31;;;;;;;6.30;4.10;;;15.90;99.90;;;;;;5051751;28;20037;-82
2023/08/24 03:49:57;;;;;;;7.40;5.32;;;15.90;99.90;;;;;;5035039;28;20496;-80
2023/08/24 03:52:22;;;;;;;9.98;5.07;;;15.90;99.90;;;;;;5035000;28;20053;-81
2023/08/24 03:54:48;;;;;;;8.82;5.50;;;15.90;99.90;;;;;;5044865;28;20106;-81
2023/08/24 03:57:15;;;;;;;7.43;4.85;;;15.90;99.90;;;;;;5051508;28;20090;-81
2023/08/24 03:59:41;;;;;;;8.60;4.78;;;15.90;99.90;;;;;;5049426;28;20507;-80
2023/08/24 04:02:07;;;;;;;7.80;5.00;;;15.90;99.90;;;;;;5051282;28;20046;-80
2023/08/24 04:04:33;;;;;;;7.97;4.85;;;16.30;99.90;;;;;;5052800;28;20052;-80
2023/08/24 04:06:58;;;;;;;10.07;4.25;;;15.90;99.90;;;;;;5018185;28;20139;-80
2023/08/24 04:09:24;;;;;;;5.32;4.40;;;15.90;99.90;;;;;;5051452;28;20493;-82
2023/08/24 04:11:50;;;;;;;5.88;3.78;;;15.90;99.90;;;;;;5048946;28;20044;-81
2023/08/24 04:14:15;;;;;;;6.40;4.75;;;15.90;99.90;;;;;;5035691;28;20040;-84
2023/08/24 04:16:41;;;;;;;9.55;5.40;;;15.90;99.90;;;;;;5050569;28;20516;-79
2023/08/24 04:19:08;;;;;;;7.28;5.28;;;15.80;99.90;;;;;;5032912;28;20056;-80
2023/08/24 04:21:33;;;;;;;7.45;5.05;;;15.90;99.90;;;;;;5031832;28;20491;-80
2023/08/24 04:23:59;;;;;;;7.43;4.70;;;15.80;99.90;;;;;;5050145;28;20107;-79
2023/08/24 04:26:25;;;;;;;7.05;4.43;;;15.80;99.90;;;;;;5044638;28;20120;-80
2023/08/24 04:28:50;;;;;;;7.45;4.60;;;16.00;99.90;;;;;;5031576;28;20036;-81
2023/08/24 04:31:16;;;;;;;5.13;3.80;;;15.80;99.90;;;;;;5024483;28;20057;-81
2023/08/24 04:33:42;;;;;;;7.55;4.22;;;15.90;99.90;;;;;;5041838;28;20033;-82
2023/08/24 04:36:08;;;;;;;7.45;4.05;;;15.90;99.90;;;;;;5045248;28;20048;-81
2023/08/24 04:38:34;;;;;;;8.18;4.15;;;15.90;99.90;;;;;;5030220;28;20110;-80
2023/08/24 04:41:00;;;;;;;9.40;3.85;;;15.90;99.90;;;;;;5050404;28;20493;-80
2023/08/24 04:43:25;;;;;;;6.30;3.42;;;15.90;99.90;;;;;;5050523;28;20469;-81
2023/08/24 04:45:53;;;;;;;6.07;4.35;;;15.90;99.90;;;;;;5045826;28;20071;-80
2023/08/24 04:48:23;;;;;;;8.65;4.55;;;16.30;99.90;;;;;;5034757;28;20080;-81
2023/08/24 04:50:49;;;;;;;7.68;4.43;;;15.80;99.90;;;;;;5046430;28;20037;-81
2023/08/24 04:53:19;;;;;;;6.55;4.53;;;15.80;99.90;;;;;;5049547;28;20087;-81
2023/08/24 04:55:46;;;;;;;7.80;4.88;;;15.80;99.90;;;;;;5032302;28;20048;-80
2023/08/24 04:58:13;;;;;;;11.75;5.32;;;15.80;99.90;;;;;;5048172;28;20076;-81
2023/08/24 05:00:39;;;;;;;7.80;4.47;;;15.80;99.90;;;;;;5030948;28;20489;-83
2023/08/24 05:03:06;;;;;;;9.95;5.30;;;15.80;99.90;;;;;;5019442;28;20071;-84
2023/08/24 05:05:32;;;;;;;9.10;4.85;;;15.80;99.90;;;;;;5039821;28;20060;-82
2023/08/24 05:08:00;;;;;;;7.30;4.85;;;15.80;99.90;;;;;;5056100;28;20047;-81
2023/08/24 05:10:29;;;;;;;9.73;5.70;;;15.80;99.90;;;;;;5054338;28;20095;-82
2023/08/24 05:12:57;;;;;;;12.90;5.07;;;15.80;99.90;;;;;;5053270;28;20650;-81
2023/08/24 05:15:23;;;;;;;10.60;5.45;;;15.70;99.90;;;;;;5033755;28;20037;-83
2023/08/24 05:17:48;;;;;;;10.27;5.90;;;15.70;99.90;;;;;;5043393;28;20041;-81
2023/08/24 05:20:14;;;;;;;12.70;4.57;;;16.10;99.90;;;;;;5051100;28;20041;-83
2023/08/24 05:22:40;;;;;;;7.47;4.93;;;15.70;99.90;;;;;;5045558;28;20037;-81
2023/08/24 05:25:06;;;;;;;11.40;4.80;;;15.70;99.90;;;;;;5045169;28;20500;-81
2023/08/24 05:27:32;;;;;;;6.55;4.75;;;15.60;99.90;;;;;;5048194;28;20055;-82
2023/08/24 05:29:58;;;;;;;10.00;4.97;;;15.60;99.90;;;;;;5047086;28;20072;-82
2023/08/24 05:32:24;;;;;;;8.80;4.80;;;15.60;99.90;;;;;;5046201;28;20517;-81
2023/08/24 05:34:50;;;;;;;9.00;4.93;;;15.60;99.90;;;;;;5041606;28;20853;-83
2023/08/24 05:37:16;;;;;;;9.55;4.57;;;15.60;99.90;;;;;;5044330;28;20053;-83
2023/08/24 05:39:42;;;;;;;7.75;4.55;;;15.70;99.90;;;;;;5042888;28;20461;-82
2023/08/24 05:42:09;;;;;;;10.40;5.13;;;15.70;99.90;;;;;;5049821;28;20538;-84
2023/08/24 05:44:35;;;;;;;11.38;5.30;;;15.70;99.90;;;;;;5041942;28;20033;-83
2023/08/24 05:47:00;;;;;;;9.40;5.07;;;15.80;99.90;;;;;;5045446;28;20378;-84
2023/08/24 05:49:26;;;;;;;11.05;5.30;;;15.80;99.90;;;;;;5043620;28;20041;-82
2023/08/24 05:51:52;;;;;;;8.82;5.78;;;15.80;99.90;;;;;;5042279;28;20041;-82
2023/08/24 05:54:18;;;;;;;8.45;5.03;;;15.80;99.90;;;;;;5047687;28;20045;-83
2023/08/24 05:56:47;;;;;;;10.13;6.00;;;15.80;99.90;;;;;;4344852;28;10000733;-83
2023/08/24 05:59:14;;;;;;;11.82;6.28;;;15.80;99.90;;;;;;5043043;28;20123;-83
2023/08/24 06:01:41;;;;;;;5.82;5.22;;;15.90;99.90;;;;;;5041163;28;20037;-83
2023/08/24 06:04:10;;;;;;;11.45;6.20;;;15.90;99.90;;;;;;5028641;28;20416;-83
2023/08/24 06:06:38;;;;;;;12.77;6.22;;;16.80;99.90;;;;;;5041051;28;20033;-83
2023/08/24 06:09:04;;;;;;;10.18;5.90;;;15.90;99.90;;;;;;5047747;28;20074;-83
2023/08/24 06:11:30;;;;;;;8.20;5.50;;;15.90;99.90;;;;;;5043473;28;20049;-83
2023/08/24 06:13:56;;;;;;;9.73;5.45;;;16.40;99.90;;;;;;5041424;28;20488;-84
2023/08/24 06:16:21;;;;;;;11.23;5.63;;;16.00;99.90;;;;;;5042221;28;20044;-83
2023/08/24 06:18:49;;;;;;;7.97;4.93;;;16.00;99.90;;;;;;5042523;28;20037;-88
2023/08/24 06:21:15;;;;;;;11.60;5.60;;;16.10;99.90;;;;;;5023990;28;20052;-80
2023/08/24 06:23:41;;;;;;;7.75;5.05;;;16.10;99.90;;;;;;5041839;28;20404;-81
2023/08/24 06:26:06;;;;;;;12.00;5.68;;;16.10;99.90;;;;;;5041829;28;20049;-80
2023/08/24 06:28:32;;;;;;;9.75;5.95;;;16.10;99.90;;;;;;5040849;28;20033;-80
2023/08/24 06:31:00;;;;;;;8.75;6.60;;;16.20;99.90;;;;;;5042212;28;20057;-80
2023/08/24 06:33:30;;;;;;;9.27;5.85;;;16.20;99.90;;;;;;5042328;28;20045;-81
2023/08/24 06:35:56;;;;;;;8.18;4.97;;;16.20;99.90;;;;;;5040705;28;20091;-79
2023/08/24 06:38:22;;;;;;;9.10;5.45;;;16.30;99.90;;;;;;5042579;28;20040;-79
2023/08/24 06:40:48;;;;;;;9.77;4.75;;;15.80;99.90;;;;;;5041632;28;20126;-79
2023/08/24 06:43:13;;;;;;;6.70;4.88;;;16.40;99.90;;;;;;5043464;28;20075;-79
2023/08/24 06:45:40;;;;;;;9.73;4.95;;;16.70;99.90;;;;;;5048264;28;20416;-80
2023/08/24 06:48:07;;;;;;;11.65;4.65;;;16.50;99.90;;;;;;5057074;28;20088;-80
2023/08/24 06:50:33;;;;;;;9.02;4.13;;;16.60;99.90;;;;;;5030953;28;20059;-79
2023/08/24 06:52:59;;;;;;;13.68;4.97;;;16.50;99.90;;;;;;5048306;28;20067;-80
2023/08/24 06:55:26;;;;;;;9.90;5.32;;;16.60;99.90;;;;;;5013300;28;20489;-80
2023/08/24 06:57:51;;;;;;;8.45;4.72;;;16.60;99.90;;;;;;5029952;28;20496;-80
2023/08/24 07:00:21;;;;;;;8.60;4.72;;;16.70;99.90;;;;;;5048354;28;20044;-79
2023/08/24 07:02:47;;;;;;;8.73;5.00;;;16.70;99.90;;;;;;5046969;28;20047;-79
2023/08/24 07:05:14;;;;;;;10.60;4.93;;;16.90;99.90;;;;;;5030457;28;20381;-80
2023/08/24 07:07:43;;;;;;;11.20;4.07;;;16.80;99.90;;;;;;5048735;28;21178;-81
2023/08/24 07:10:09;;;;;;;8.70;4.22;;;16.90;99.90;;;;;;5029818;28;20061;-80
2023/08/24 07:12:35;;;;;;;7.68;3.95;;;17.00;99.90;;;;;;5048904;28;20068;-79
2023/08/24 07:15:01;;;;;;;5.63;2.95;;;17.00;99.90;;;;;;5048082;28;20076;-80
2023/08/24 07:17:27;;;;;;;7.16;3.38;;;17.00;99.90;;;;;;4703337;28;10000820;-79
2023/08/24 07:19:52;;;;;;;5.00;3.78;;;17.10;99.90;;;;;;5056658;28;20040;-78
2023/08/24 07:22:19;;;;;;;6.57;3.30;;;17.20;99.90;;;;;;5028468;28;20126;-78
2023/08/24 07:24:45;;;;;;;8.73;3.08;;;17.20;99.90;;;;;;5053887;28;20037;-80
2023/08/24 07:27:10;;;;;;;6.00;3.50;;;17.30;99.90;;;;;;5036023;28;20508;-78
2023/08/24 07:29:36;;;;;;;6.40;3.15;;;18.80;99.90;;;;;;5051544;28;20051;-81
2023/08/24 07:32:03;;;;;;;7.82;3.72;;;17.40;99.90;;;;;;5018582;28;20048;-80
2023/08/24 07:34:29;;;;;;;5.15;3.42;;;17.50;99.90;;;;;;5035331;28;20053;-82
2023/08/24 07:36:55;;;;;;;8.25;2.83;;;18.10;99.90;;;;;;5035469;28;20120;-79
2023/08/24 07:39:21;;;;;;;4.28;2.80;;;17.80;99.90;;;;;;5053445;28;20581;-79
2023/08/24 07:41:46;;;;;;;7.45;3.17;;;17.70;99.90;;;;;;5053529;28;20513;-80
2023/08/24 07:44:12;;;;;;;5.65;2.92;;;17.70;99.90;;;;;;5052559;28;20135;-81
2023/08/24 07:46:41;;;;;;;5.40;3.47;;;16.60;99.90;;;;;;5054194;28;20045;-82
2023/08/24 07:49:07;;;;;;;5.20;3.60;;;17.90;99.90;;;;;;5053278;28;20045;-82
2023/08/24 07:51:36;;;;;;;7.10;3.88;;;17.90;99.90;;;;;;5052361;28;20656;-82
2023/08/24 07:54:01;;;;;;;7.15;3.25;;;18.10;99.90;;;;;;5035010;28;20112;-80
2023/08/24 07:56:27;;;;;;;6.93;3.83;;;18.00;99.90;;;;;;5047653;28;20144;-80
2023/08/24 07:58:53;;;;;;;6.15;3.28;;;18.40;99.90;;;;;;5029768;28;20497;-81
2023/08/24 08:01:18;;;;;;;5.93;3.55;;;18.20;99.90;;;;;;5049767;28;20049;-81
2023/08/24 08:03:44;;;;;;;6.85;3.25;;;18.20;99.90;;;;;;5049163;28;20449;-81
2023/08/24 08:06:10;;;;;;;8.23;4.00;;;18.30;99.90;;;;;;5047032;28;20047;-80
2023/08/24 08:08:35;;;;;;;6.65;3.63;;;18.40;99.90;;;;;;5050575;28;20056;-81
2023/08/24 08:11:02;;;;;;;7.57;3.92;;;18.50;99.90;;;;;;5049908;28;20040;-82
2023/08/24 08:13:29;;;;;;;7.72;4.57;;;18.50;99.90;;;;;;5011582;28;20152;-81
2023/08/24 08:16:04;;;;;;;7.35;4.03;;;18.60;99.90;;;;;;5051228;28;20499;-82
2023/08/24 08:18:31;;;;;;;8.75;4.22;;;18.60;99.90;;;;;;5053301;28;20041;-81
2023/08/24 08:20:57;;;;;;;9.40;5.00;;;19.20;99.90;;;;;;5033132;28;20037;-81
2023/08/24 08:23:22;;;;;;;4.47;3.80;;;18.80;99.90;;;;;;5048262;28;20052;-84
2023/08/24 08:25:48;;;;;;;9.00;4.97;;;18.80;99.90;;;;;;5055242;28;20480;-83
2023/08/24 08:28:14;;;;;;;10.10;4.75;;;18.80;99.90;;;;;;5020696;28;20136;-86
2023/08/24 08:30:41;;;;;;;8.95;4.00;;;18.90;99.90;;;;;;5033813;28;20431;-85
2023/08/24 08:33:06;;;;;;;9.10;5.20;;;19.00;99.90;;;;;;5041420;28;20107;-83
2023/08/24 08:35:32;;;;;;;9.35;4.80;;;19.00;99.90;;;;;;5047460;28;20119;-84
2023/08/24 08:37:58;;;;;;;9.60;5.28;;;19.10;99.90;;;;;;5048389;28;20048;-83
2023/08/24 08:40:30;;;;;;;11.48;4.68;;;19.20;99.90;;;;;;5046250;28;20103;-83
2023/08/24 08:42:58;;;;;;;7.47;4.80;;;19.20;99.90;;;;;;5034743;28;20366;-84
2023/08/24 08:45:26;;;;;;;5.85;4.50;;;19.40;99.90;;;;;;5052157;28;20041;-84
2023/08/24 08:47:55;;;;;;;9.55;4.55;;;19.40;99.90;;;;;;5035674;28;20086;-83
2023/08/24 08:50:21;;;;;;;10.23;5.15;;;19.50;99.90;;;;;;5045511;28;20120;-84
2023/08/24 08:52:47;;;;;;;12.18;4.47;;;19.50;99.90;;;;;;5048342;28;20450;-84
2023/08/24 08:55:15;;;;;;;8.38;4.78;;;19.60;99.90;;;;;;5043856;28;20053;-84
2023/08/24 08:57:42;;;;;;;6.35;4.35;;;19.70;99.90;;;;;;5026362;28;20497;-78
2023/08/24 09:00:16;;;;;;;13.05;5.07;;;19.90;99.90;;;;;;5049121;28;20068;-79
2023/08/24 09:02:45;;;;;;;10.63;5.13;;;20.00;99.90;;;;;;5051759;28;20497;-79
2023/08/24 09:05:12;;;;;;;9.13;4.43;;;20.00;99.90;;;;;;5034328;28;20430;-78
2023/08/24 09:07:39;;;;;;;8.35;4.95;;;20.10;99.90;;;;;;5033176;28;20048;-79
2023/08/24 09:10:07;;;;;;;9.20;4.55;;;20.20;99.90;;;;;;5030397;28;20052;-79
2023/08/24 09:12:33;;;;;;;9.02;4.85;;;20.20;99.90;;;;;;5051158;28;20045;-80
2023/08/24 09:14:59;;;;;;;8.73;5.10;;;20.30;99.90;;;;;;5051139;28;20545;-79
2023/08/24 09:17:25;;;;;;;10.43;4.32;;;20.30;99.90;;;;;;5045166;28;20049;-81
2023/08/24 09:19:57;;;;;;;13.43;5.45;;;20.30;99.90;;;;;;5045103;28;20060;-79
2023/08/24 09:22:23;;;;;;;9.50;5.60;;;20.30;99.90;;;;;;5045284;28;20038;-79
2023/08/24 09:24:52;;;;;;;10.25;4.80;;;20.30;99.90;;;;;;5029534;28;20074;-79
2023/08/24 09:27:19;;;;;;;6.30;4.18;;;20.30;99.90;;;;;;5016227;28;20055;-81
2023/08/24 09:29:52;;;;;;;10.05;4.90;;;20.40;99.90;;;;;;5016029;28;20401;-81
2023/08/24 09:32:29;;;;;;;10.07;5.40;;;20.40;99.90;;;;;;5048567;28;20084;-80
2023/08/24 09:34:55;;;;;;;9.35;5.63;;;20.40;99.90;;;;;;5047163;28;20496;-82
2023/08/24 09:37:22;;;;;;;9.05;5.38;;;20.40;99.90;;;;;;5027152;28;20063;-78
2023/08/24 09:39:48;;;;;;;6.07;5.32;;;20.40;99.90;;;;;;5031108;28;20280;-80
2023/08/24 09:42:14;;;;;;;7.55;5.30;;;20.50;99.90;;;;;;5026856;28;20063;-81
2023/08/24 09:44:46;;;;;;;10.02;5.40;;;20.50;99.90;;;;;;5046075;28;20492;-80
2023/08/24 09:47:12;;;;;;;9.82;4.65;;;20.50;99.90;;;;;;5033656;28;20450;-80
2023/08/24 09:49:38;;;;;;;7.93;4.82;;;20.50;99.90;;;;;;5050121;28;20084;-81
2023/08/24 09:52:08;;;;;;;11.30;5.38;;;20.50;99.90;;;;;;5028998;28;20083;-81
2023/08/24 09:54:37;;;;;;;9.88;5.70;;;20.50;99.90;;;;;;5048783;28;20048;-81
2023/08/24 09:57:06;;;;;;;8.75;6.25;;;20.60;99.90;;;;;;5049930;28;20493;-82
2023/08/24 09:59:34;;;;;;;9.30;5.25;;;20.60;99.90;;;;;;5050551;28;20128;-80
2023/08/24 10:02:01;;;;;;;9.52;5.30;;;20.60;99.90;;;;;;5046934;28;20044;-80
2023/08/24 10:04:35;;;;;;;11.07;6.05;;;20.60;99.90;;;;;;5057858;28;20064;-80
2023/08/24 10:07:11;;;;;;;9.75;6.60;;;20.60;99.90;;;;;;5050027;28;20072;-81
2023/08/24 10:10:03;;;;;;;10.00;6.47;;;20.60;99.90;;;;;;5049287;28;20041;-80
2023/08/24 10:12:31;;;;;;;8.93;6.35;;;20.60;99.90;;;;;;5050615;28;20400;-81
2023/08/24 10:15:03;;;;;;;10.23;6.35;;;20.60;99.90;;;;;;5022644;28;20493;-83
2023/08/24 10:17:36;;;;;;;10.52;6.03;;;20.60;99.90;;;;;;5030839;28;20328;-81
2023/08/24 10:20:05;;;;;;;13.05;6.95;;;20.60;99.90;;;;;;5048263;28;20079;-81
2023/08/24 10:22:33;;;;;;;12.77;6.72;;;20.60;99.90;;;;;;4335612;28;10000698;-81
2023/08/24 10:24:59;;;;;;;12.02;7.00;;;20.60;99.90;;;;;;5046822;28;20056;-82
2023/08/24 10:27:27;;;;;;;10.00;6.65;;;20.60;99.90;;;;;;5029218;28;20037;-83
2023/08/24 10:29:53;;;;;;;7.90;5.53;;;20.60;99.90;;;;;;5038180;28;20638;-84
2023/08/24 10:32:23;;;;;;;9.27;6.28;;;20.60;99.90;;;;;;5030002;28;20140;-82
2023/08/24 10:34:50;;;;;;;11.13;5.75;;;20.60;99.90;;;;;;5039597;28;20049;-84
2023/08/24 10:37:16;;;;;;;6.97;5.78;;;20.60;99.90;;;;;;5047564;28;20029;-83
2023/08/24 10:39:46;;;;;;;8.63;6.13;;;20.50;99.90;;;;;;5046955;28;20049;-84
2023/08/24 10:42:13;;;;;;;11.68;5.93;;;20.50;99.90;;;;;;5044083;28;20497;-83
2023/08/24 10:44:49;;;;;;;9.95;5.95;;;20.50;99.90;;;;;;5049417;28;20052;-83
2023/08/24 10:47:21;;;;;;;11.82;5.72;;;20.50;99.90;;;;;;5044411;28;20037;-84
2023/08/24 10:50:13;;;;;;;8.13;5.57;;;20.50;99.90;;;;;;5047108;28;20041;-83
2023/08/24 10:52:46;;;;;;;9.98;5.75;;;20.50;99.90;;;;;;5023458;28;20178;-84
2023/08/24 10:55:27;;;;;;;11.52;7.05;;;20.50;99.90;;;;;;5029649;28;20045;-81
2023/08/24 10:57:58;;;;;;;13.77;5.60;;;20.50;99.90;;;;;;5045493;28;20492;-81
2023/08/24 11:00:26;;;;;;;10.45;5.43;;;20.50;99.90;;;;;;5047679;28;20048;-82
2023/08/24 11:02:53;;;;;;;9.18;6.20;;;20.50;99.90;;;;;;5044258;28;20072;-82
2023/08/24 11:05:33;;;;;;;14.48;6.25;;;20.50;99.90;;;;;;5047829;28;20033;-82
2023/08/24 11:08:04;;;;;;;10.65;7.32;;;20.50;99.90;;;;;;5028637;28;20049;-82
2023/08/24 11:10:42;;;;;;;17.75;8.10;;;20.50;99.90;;;;;;5045037;28;20051;-82
2023/08/24 11:13:13;;;;;;;9.50;6.65;;;20.50;99.90;;;;;;5034550;28;20084;-82
2023/08/24 11:15:54;;;;;;;14.20;7.45;;;20.40;99.90;;;;;;5014950;28;20424;-83
2023/08/24 11:18:23;;;;;;;8.52;6.53;;;20.50;99.90;;;;;;5039599;28;20528;-81
2023/08/24 11:20:50;;;;;;;7.63;6.00;;;20.50;99.90;;;;;;5040197;28;20041;-82
2023/08/24 11:23:18;;;;;;;9.88;8.07;;;20.50;99.90;;;;;;5048084;28;20036;-83
2023/08/24 11:25:45;;;;;;;9.52;7.97;;;20.50;99.90;;;;;;5030835;28;20044;-83
2023/08/24 11:28:16;;;;;;;12.05;6.32;;;20.50;99.90;;;;;;5048532;28;20552;-83
2023/08/24 11:30:43;;;;;;;13.15;7.82;;;20.50;99.90;;;;;;5032667;28;20519;-83
2023/08/24 11:33:09;;;;;;;10.05;7.82;;;20.60;99.90;;;;;;5033694;28;20041;-82
2023/08/24 11:35:43;;;;;;;10.55;8.43;;;20.50;99.90;;;;;;5034601;28;20036;-82
2023/08/24 11:38:09;;;;;;;16.88;9.02;;;20.50;99.90;;;;;;5035291;28;20136;-83
2023/08/24 11:40:34;;;;;;;16.00;9.00;;;20.60;99.90;;;;;;5057438;28;20067;-82
2023/08/24 11:43:00;;;;;;;10.90;8.05;;;20.60;99.90;;;;;;5042104;28;20041;-83
2023/08/24 11:45:33;;;;;;;14.63;9.20;;;20.60;99.90;;;;;;5053696;28;20037;-83
2023/08/24 11:48:04;;;;;;;11.90;8.75;;;20.70;99.90;;;;;;5052678;28;20086;-82
2023/08/24 11:50:30;;;;;;;13.63;9.15;;;20.70;99.90;;;;;;5052954;28;20512;-82
2023/08/24 11:52:56;;;;;;;8.73;7.60;;;20.80;99.90;;;;;;5050195;28;20423;-83
2023/08/24 11:55:26;;;;;;;16.73;9.25;;;20.80;99.90;;;;;;5054488;28;20106;-83
2023/08/24 11:57:53;;;;;;;15.32;9.48;;;20.80;99.90;;;;;;5052975;28;20040;-82
2023/08/24 12:00:23;;;;;;;13.35;7.80;;;20.90;99.90;;;;;;5035387;28;20370;-83
2023/08/24 12:02:49;;;;;;;13.45;8.88;;;20.90;99.90;;;;;;5053297;28;20048;-82
2023/08/24 12:05:22;;;;;;;12.07;7.88;;;21.00;99.90;;;;;;5047234;28;20052;-83
2023/08/24 12:07:48;;;;;;;9.50;8.38;;;21.00;99.90;;;;;;5054835;28;20041;-84
2023/08/24 12:10:14;;;;;;;10.73;8.80;;;21.00;99.90;;;;;;5052245;28;20037;-83
2023/08/24 12:12:40;;;;;;;12.07;8.25;;;21.00;99.90;;;;;;5052595;28;20094;-83
2023/08/24 12:15:06;;;;;;;10.40;7.68;;;21.10;99.90;;;;;;5017431;28;20045;-84
2023/08/24 12:17:43;;;;;;;10.45;8.52;;;21.10;99.90;;;;;;5051230;28;20037;-83
2023/08/24 12:20:21;;;;;;;10.70;8.27;;;21.10;99.90;;;;;;5051670;28;20401;-81
2023/08/24 12:22:55;;;;;;;12.27;8.85;;;21.10;99.90;;;;;;5031451;28;20047;-83
2023/08/24 12:25:24;;;;;;;;;;;21.10;99.90;;;;;;5054060;28;20040;-85
2023/08/24 12:28:14;;;;;;;11.15;8.27;;;21.10;99.90;;;;;;5032295;28;19920;-84
2023/08/24 12:30:47;;;;;;;10.88;8.45;;;21.10;99.90;;;;;;5045523;28;20048;-84
2023/08/24 12:33:26;;;;;;;9.52;7.88;;;21.10;99.90;;;;;;5049121;28;20048;-85
2023/08/24 12:35:53;;;;;;;11.80;8.85;;;21.20;99.90;;;;;;5019343;28;20090;-83
2023/08/24 12:38:19;;;;;;;14.20;9.60;;;21.20;99.90;;;;;;5053293;28;20055;-84
2023/08/24 12:40:45;;;;;;;17.38;15.35;;;21.20;99.90;;;;;;5033940;28;20048;-85
2023/08/24 12:43:11;;;;;;;9.05;8.27;;;21.20;99.90;;;;;;5052649;28;20021;-85
2023/08/24 12:45:39;;;;;;;10.65;7.22;;;21.20;99.90;;;;;;5049463;28;20072;-87